sensor_id;sensor_type;location;lat;lon;timestamp;pressure;altitude;pressure_sealevel;temperature;humidity
63321;BME280;49449;48.800;9.534;2022-11-15T00:00:10;98375.53;;;8.96;47.96
63321;BME280;49449;48.800;9.534;2022-11-15T00:02:38;98382.44;;;8.90;48.07
63321;BME280;49449;48.800;9.534;2022-11-15T00:05:06;98377.78;;;8.92;47.91
63321;BME280;49449;48.800;9.534;2022-11-15T00:07:34;98372.66;;;8.79;48.27
63321;BME280;49449;48.800;9.534;2022-11-15T00:10:19;98372.78;;;8.65;48.50
63321;BME280;49449;48.800;9.534;2022-11-15T00:12:47;98376.22;;;8.66;48.50
63321;BME280;49449;48.800;9.534;2022-11-15T00:15:16;98371.09;;;8.71;48.42
63321;BME280;49449;48.800;9.534;2022-11-15T00:17:44;98362.56;;;8.76;48.35
63321;BME280;49449;48.800;9.534;2022-11-15T00:20:15;98352.19;;;8.74;48.35
63321;BME280;49449;48.800;9.534;2022-11-15T00:22:43;98347.38;;;8.78;48.25
63321;BME280;49449;48.800;9.534;2022-11-15T00:25:11;98350.56;;;8.80;48.35
63321;BME280;49449;48.800;9.534;2022-11-15T00:27:39;98346.91;;;8.81;48.44
63321;BME280;49449;48.800;9.534;2022-11-15T00:30:07;98350.13;;;8.83;49.07
63321;BME280;49449;48.800;9.534;2022-11-15T00:32:36;98355.38;;;8.83;48.75
63321;BME280;49449;48.800;9.534;2022-11-15T00:35:05;98354.16;;;8.85;48.52
63321;BME280;49449;48.800;9.534;2022-11-15T00:37:32;98359.19;;;8.87;48.71
63321;BME280;49449;48.800;9.534;2022-11-15T00:40:00;98359.78;;;8.89;48.49
63321;BME280;49449;48.800;9.534;2022-11-15T00:42:28;98359.69;;;8.77;48.65
63321;BME280;49449;48.800;9.534;2022-11-15T00:44:56;98356.50;;;8.75;48.60
63321;BME280;49449;48.800;9.534;2022-11-15T00:47:23;98361.94;;;8.73;48.66
63321;BME280;49449;48.800;9.534;2022-11-15T00:49:52;98349.66;;;8.67;48.65
63321;BME280;49449;48.800;9.534;2022-11-15T00:52:20;98351.03;;;8.70;48.74
63321;BME280;49449;48.800;9.534;2022-11-15T00:54:48;98347.56;;;8.76;48.57
63321;BME280;49449;48.800;9.534;2022-11-15T00:57:16;98344.47;;;8.79;48.60
63321;BME280;49449;48.800;9.534;2022-11-15T00:59:43;98342.66;;;8.80;48.45
63321;BME280;49449;48.800;9.534;2022-11-15T01:02:11;98339.00;;;8.81;48.52
63321;BME280;49449;48.800;9.534;2022-11-15T01:04:39;98324.81;;;8.82;48.52
63321;BME280;49449;48.800;9.534;2022-11-15T01:07:08;98331.44;;;8.84;48.36
63321;BME280;49449;48.800;9.534;2022-11-15T01:09:36;98338.13;;;8.87;48.41
63321;BME280;49449;48.800;9.534;2022-11-15T01:12:04;98334.09;;;8.84;48.39
63321;BME280;49449;48.800;9.534;2022-11-15T01:14:32;98327.00;;;8.85;48.45
63321;BME280;49449;48.800;9.534;2022-11-15T01:17:00;98319.69;;;8.87;48.36
63321;BME280;49449;48.800;9.534;2022-11-15T01:19:28;98315.88;;;8.83;48.33
63321;BME280;49449;48.800;9.534;2022-11-15T01:21:56;98321.59;;;8.80;48.35
63321;BME280;49449;48.800;9.534;2022-11-15T01:24:25;98319.97;;;8.79;48.46
63321;BME280;49449;48.800;9.534;2022-11-15T01:26:52;98314.34;;;8.75;48.48
63321;BME280;49449;48.800;9.534;2022-11-15T01:29:20;98309.47;;;8.72;48.42
63321;BME280;49449;48.800;9.534;2022-11-15T01:31:48;98309.59;;;8.65;48.36
63321;BME280;49449;48.800;9.534;2022-11-15T01:34:16;98300.72;;;8.60;48.45
63321;BME280;49449;48.800;9.534;2022-11-15T01:36:44;98305.47;;;8.51;48.42
63321;BME280;49449;48.800;9.534;2022-11-15T01:39:11;98304.38;;;8.40;48.81
63321;BME280;49449;48.800;9.534;2022-11-15T01:41:41;98300.72;;;8.41;48.49
63321;BME280;49449;48.800;9.534;2022-11-15T01:44:38;98302.03;;;8.32;48.68
63321;BME280;49449;48.800;9.534;2022-11-15T01:47:09;98297.78;;;8.31;48.63
63321;BME280;49449;48.800;9.534;2022-11-15T01:49:41;98306.06;;;8.34;48.52
63321;BME280;49449;48.800;9.534;2022-11-15T01:52:14;98307.06;;;8.33;48.29
63321;BME280;49449;48.800;9.534;2022-11-15T01:54:43;98306.06;;;8.34;48.22
63321;BME280;49449;48.800;9.534;2022-11-15T01:57:13;98299.03;;;8.28;48.08
63321;BME280;49449;48.800;9.534;2022-11-15T01:59:43;98296.91;;;8.19;48.29
63321;BME280;49449;48.800;9.534;2022-11-15T02:02:12;98299.59;;;8.12;48.37
63321;BME280;49449;48.800;9.534;2022-11-15T02:04:41;98287.25;;;8.12;48.27
63321;BME280;49449;48.800;9.534;2022-11-15T02:07:11;98290.53;;;8.08;48.17
63321;BME280;49449;48.800;9.534;2022-11-15T02:09:43;98292.94;;;8.09;48.28
63321;BME280;49449;48.800;9.534;2022-11-15T02:12:15;98283.94;;;7.98;48.02
63321;BME280;49449;48.800;9.534;2022-11-15T02:14:48;98288.22;;;7.93;47.65
63321;BME280;49449;48.800;9.534;2022-11-15T02:17:38;98285.81;;;7.91;48.11
63321;BME280;49449;48.800;9.534;2022-11-15T02:20:28;98278.41;;;7.82;47.98
63321;BME280;49449;48.800;9.534;2022-11-15T02:23:15;98276.94;;;7.86;47.75
63321;BME280;49449;48.800;9.534;2022-11-15T02:25:58;98279.00;;;7.84;48.18
63321;BME280;49449;48.800;9.534;2022-11-15T02:28:50;98273.88;;;7.70;48.06
63321;BME280;49449;48.800;9.534;2022-11-15T02:31:26;98266.09;;;7.50;48.44
63321;BME280;49449;48.800;9.534;2022-11-15T02:34:01;98272.53;;;7.54;48.29
63321;BME280;49449;48.800;9.534;2022-11-15T02:36:38;98270.50;;;7.56;48.32
63321;BME280;49449;48.800;9.534;2022-11-15T02:39:11;98261.81;;;7.56;47.97
63321;BME280;49449;48.800;9.534;2022-11-15T02:41:47;98263.28;;;7.45;47.69
63321;BME280;49449;48.800;9.534;2022-11-15T02:44:23;98258.66;;;7.47;47.80
63321;BME280;49449;48.800;9.534;2022-11-15T02:46:54;98258.38;;;7.55;47.75
63321;BME280;49449;48.800;9.534;2022-11-15T02:49:43;98250.69;;;7.54;47.81
63321;BME280;49449;48.800;9.534;2022-11-15T02:52:14;98255.78;;;7.49;47.65
63321;BME280;49449;48.800;9.534;2022-11-15T02:54:42;98246.38;;;7.34;47.74
63321;BME280;49449;48.800;9.534;2022-11-15T02:57:12;98243.84;;;7.28;48.13
63321;BME280;49449;48.800;9.534;2022-11-15T03:00:00;98239.03;;;7.18;48.40
63321;BME280;49449;48.800;9.534;2022-11-15T03:02:48;98235.72;;;7.29;48.39
63321;BME280;49449;48.800;9.534;2022-11-15T03:05:26;98232.63;;;7.39;47.96
63321;BME280;49449;48.800;9.534;2022-11-15T03:08:01;98233.56;;;7.45;47.84
63321;BME280;49449;48.800;9.534;2022-11-15T03:10:38;98234.81;;;7.42;47.43
63321;BME280;49449;48.800;9.534;2022-11-15T03:13:18;98235.19;;;7.46;47.28
63321;BME280;49449;48.800;9.534;2022-11-15T03:15:51;98237.81;;;7.46;47.20
63321;BME280;49449;48.800;9.534;2022-11-15T03:18:27;98228.06;;;7.53;47.36
63321;BME280;49449;48.800;9.534;2022-11-15T03:20:58;98227.84;;;7.54;47.15
63321;BME280;49449;48.800;9.534;2022-11-15T03:23:29;98233.31;;;7.53;47.02
63321;BME280;49449;48.800;9.534;2022-11-15T03:25:59;98230.91;;;7.51;47.38
63321;BME280;49449;48.800;9.534;2022-11-15T03:28:31;98224.91;;;7.44;47.38
63321;BME280;49449;48.800;9.534;2022-11-15T03:31:02;98223.44;;;7.48;47.64
63321;BME280;49449;48.800;9.534;2022-11-15T03:33:52;98220.44;;;7.45;47.58
63321;BME280;49449;48.800;9.534;2022-11-15T03:36:23;98217.75;;;7.51;47.16
63321;BME280;49449;48.800;9.534;2022-11-15T03:38:58;98218.56;;;7.52;47.27
63321;BME280;49449;48.800;9.534;2022-11-15T03:41:30;98212.50;;;7.51;47.36
63321;BME280;49449;48.800;9.534;2022-11-15T03:44:08;98218.97;;;7.49;47.56
63321;BME280;49449;48.800;9.534;2022-11-15T03:46:42;98214.34;;;7.51;47.50
63321;BME280;49449;48.800;9.534;2022-11-15T03:49:16;98211.25;;;7.54;47.32
63321;BME280;49449;48.800;9.534;2022-11-15T03:51:44;98209.25;;;7.56;47.51
63321;BME280;49449;48.800;9.534;2022-11-15T03:54:13;98197.69;;;7.57;47.32
63321;BME280;49449;48.800;9.534;2022-11-15T03:56:41;98194.25;;;7.56;47.30
63321;BME280;49449;48.800;9.534;2022-11-15T03:59:08;98187.16;;;7.57;47.22
63321;BME280;49449;48.800;9.534;2022-11-15T04:01:36;98183.16;;;7.54;47.42
63321;BME280;49449;48.800;9.534;2022-11-15T04:04:04;98186.38;;;7.56;47.42
63321;BME280;49449;48.800;9.534;2022-11-15T04:06:33;98181.72;;;7.58;47.43
63321;BME280;49449;48.800;9.534;2022-11-15T04:09:01;98183.09;;;7.61;47.59
63321;BME280;49449;48.800;9.534;2022-11-15T04:11:31;98186.09;;;7.65;47.68
63321;BME280;49449;48.800;9.534;2022-11-15T04:13:59;98181.88;;;7.64;47.65
63321;BME280;49449;48.800;9.534;2022-11-15T04:16:27;98179.41;;;7.69;47.51
63321;BME280;49449;48.800;9.534;2022-11-15T04:18:54;98185.69;;;7.68;47.72
63321;BME280;49449;48.800;9.534;2022-11-15T04:21:37;98181.25;;;7.68;47.46
63321;BME280;49449;48.800;9.534;2022-11-15T04:24:22;98180.41;;;7.68;46.99
63321;BME280;49449;48.800;9.534;2022-11-15T04:26:50;98179.34;;;7.50;47.41
63321;BME280;49449;48.800;9.534;2022-11-15T04:29:18;98182.03;;;7.44;47.30
63321;BME280;49449;48.800;9.534;2022-11-15T04:32:05;98173.69;;;7.47;47.29
63321;BME280;49449;48.800;9.534;2022-11-15T04:34:33;98170.91;;;7.41;47.53
63321;BME280;49449;48.800;9.534;2022-11-15T04:37:03;98172.38;;;7.37;47.40
63321;BME280;49449;48.800;9.534;2022-11-15T04:39:38;98185.25;;;7.46;47.97
63321;BME280;49449;48.800;9.534;2022-11-15T04:42:07;98181.97;;;7.50;47.98
63321;BME280;49449;48.800;9.534;2022-11-15T04:44:34;98179.91;;;7.52;48.08
63321;BME280;49449;48.800;9.534;2022-11-15T04:47:02;98182.34;;;7.54;47.83
63321;BME280;49449;48.800;9.534;2022-11-15T04:49:30;98183.00;;;7.49;47.90
63321;BME280;49449;48.800;9.534;2022-11-15T04:51:58;98186.09;;;7.39;47.73
63321;BME280;49449;48.800;9.534;2022-11-15T04:54:27;98173.16;;;7.38;47.76
63321;BME280;49449;48.800;9.534;2022-11-15T04:56:55;98180.31;;;7.31;47.92
63321;BME280;49449;48.800;9.534;2022-11-15T04:59:23;98179.88;;;7.34;47.96
63321;BME280;49449;48.800;9.534;2022-11-15T05:01:51;98173.47;;;7.30;48.24
63321;BME280;49449;48.800;9.534;2022-11-15T05:04:18;98170.25;;;7.28;48.29
63321;BME280;49449;48.800;9.534;2022-11-15T05:06:46;98168.00;;;7.31;48.18
63321;BME280;49449;48.800;9.534;2022-11-15T05:09:14;98169.75;;;7.37;48.13
63321;BME280;49449;48.800;9.534;2022-11-15T05:11:43;98167.72;;;7.39;48.35
63321;BME280;49449;48.800;9.534;2022-11-15T05:14:11;98170.13;;;7.41;47.98
63321;BME280;49449;48.800;9.534;2022-11-15T05:16:39;98166.84;;;7.46;48.16
63321;BME280;49449;48.800;9.534;2022-11-15T05:19:07;98166.78;;;7.52;47.83
63321;BME280;49449;48.800;9.534;2022-11-15T05:21:35;98165.34;;;7.56;47.82
63321;BME280;49449;48.800;9.534;2022-11-15T05:24:04;98167.13;;;7.63;47.57
63321;BME280;49449;48.800;9.534;2022-11-15T05:26:32;98170.56;;;7.63;47.74
63321;BME280;49449;48.800;9.534;2022-11-15T05:29:02;98170.34;;;7.65;47.63
63321;BME280;49449;48.800;9.534;2022-11-15T05:31:30;98162.44;;;7.65;47.63
63321;BME280;49449;48.800;9.534;2022-11-15T05:33:58;98166.69;;;7.66;47.68
63321;BME280;49449;48.800;9.534;2022-11-15T05:36:31;98157.78;;;7.67;47.49
63321;BME280;49449;48.800;9.534;2022-11-15T05:39:01;98165.47;;;7.68;47.55
63321;BME280;49449;48.800;9.534;2022-11-15T05:41:32;98151.28;;;7.69;47.44
63321;BME280;49449;48.800;9.534;2022-11-15T05:44:03;98149.69;;;7.68;47.35
63321;BME280;49449;48.800;9.534;2022-11-15T05:46:33;98151.28;;;7.69;47.18
63321;BME280;49449;48.800;9.534;2022-11-15T05:49:03;98146.66;;;7.65;47.38
63321;BME280;49449;48.800;9.534;2022-11-15T05:51:33;98145.91;;;7.57;47.59
63321;BME280;49449;48.800;9.534;2022-11-15T05:54:02;98151.41;;;7.56;47.32
63321;BME280;49449;48.800;9.534;2022-11-15T05:56:30;98150.56;;;7.55;47.29
63321;BME280;49449;48.800;9.534;2022-11-15T05:58:58;98150.13;;;7.40;47.26
63321;BME280;49449;48.800;9.534;2022-11-15T06:01:27;98143.53;;;7.31;47.51
63321;BME280;49449;48.800;9.534;2022-11-15T06:03:55;98147.97;;;7.30;47.65
63321;BME280;49449;48.800;9.534;2022-11-15T06:06:23;98151.19;;;7.32;47.82
63321;BME280;49449;48.800;9.534;2022-11-15T06:08:51;98150.94;;;7.40;47.43
63321;BME280;49449;48.800;9.534;2022-11-15T06:11:18;98150.34;;;7.38;47.58
63321;BME280;49449;48.800;9.534;2022-11-15T06:13:46;98153.34;;;7.42;47.51
63321;BME280;49449;48.800;9.534;2022-11-15T06:16:14;98149.47;;;7.45;47.39
63321;BME280;49449;48.800;9.534;2022-11-15T06:18:43;98151.50;;;7.43;46.56
63321;BME280;49449;48.800;9.534;2022-11-15T06:21:10;98150.13;;;7.40;47.19
63321;BME280;49449;48.800;9.534;2022-11-15T06:23:38;98146.69;;;7.39;46.99
63321;BME280;49449;48.800;9.534;2022-11-15T06:26:06;98153.19;;;7.37;47.22
63321;BME280;49449;48.800;9.534;2022-11-15T06:28:34;98163.28;;;7.40;47.08
63321;BME280;49449;48.800;9.534;2022-11-15T06:31:02;98157.19;;;7.39;46.93
63321;BME280;49449;48.800;9.534;2022-11-15T06:33:31;98156.19;;;7.40;46.96
63321;BME280;49449;48.800;9.534;2022-11-15T06:36:01;98153.66;;;7.27;46.89
63321;BME280;49449;48.800;9.534;2022-11-15T06:38:29;98152.44;;;7.30;47.04
63321;BME280;49449;48.800;9.534;2022-11-15T06:41:01;98159.50;;;7.29;47.24
63321;BME280;49449;48.800;9.534;2022-11-15T06:43:29;98156.06;;;7.29;47.13
63321;BME280;49449;48.800;9.534;2022-11-15T06:45:57;98159.75;;;7.28;47.37
63321;BME280;49449;48.800;9.534;2022-11-15T06:48:25;98152.44;;;7.30;47.29
63321;BME280;49449;48.800;9.534;2022-11-15T06:50:54;98147.78;;;7.32;47.13
63321;BME280;49449;48.800;9.534;2022-11-15T06:53:24;98161.75;;;7.26;46.43
63321;BME280;49449;48.800;9.534;2022-11-15T06:55:52;98159.03;;;7.14;47.17
63321;BME280;49449;48.800;9.534;2022-11-15T06:58:21;98162.72;;;7.06;47.19
63321;BME280;49449;48.800;9.534;2022-11-15T07:00:48;98160.22;;;7.18;46.89
63321;BME280;49449;48.800;9.534;2022-11-15T07:03:16;98157.78;;;7.16;46.92
63321;BME280;49449;48.800;9.534;2022-11-15T07:05:50;98160.28;;;7.04;46.92
63321;BME280;49449;48.800;9.534;2022-11-15T07:08:18;98150.94;;;7.15;46.84
63321;BME280;49449;48.800;9.534;2022-11-15T07:10:48;98154.75;;;7.19;46.66
63321;BME280;49449;48.800;9.534;2022-11-15T07:13:16;98156.78;;;7.17;46.48
63321;BME280;49449;48.800;9.534;2022-11-15T07:15:43;98150.69;;;7.17;46.45
63321;BME280;49449;48.800;9.534;2022-11-15T07:18:11;98158.00;;;7.15;46.69
63321;BME280;49449;48.800;9.534;2022-11-15T07:20:39;98152.00;;;7.08;46.68
63321;BME280;49449;48.800;9.534;2022-11-15T07:23:07;98151.19;;;7.07;46.56
63321;BME280;49449;48.800;9.534;2022-11-15T07:25:34;98152.59;;;7.10;46.88
63321;BME280;49449;48.800;9.534;2022-11-15T07:28:04;98152.91;;;7.20;46.50
63321;BME280;49449;48.800;9.534;2022-11-15T07:30:32;98150.88;;;7.22;46.71
63321;BME280;49449;48.800;9.534;2022-11-15T07:33:00;98146.28;;;7.17;46.88
63321;BME280;49449;48.800;9.534;2022-11-15T07:35:28;98142.31;;;7.33;46.60
63321;BME280;49449;48.800;9.534;2022-11-15T07:37:58;98151.88;;;7.46;46.61
63321;BME280;49449;48.800;9.534;2022-11-15T07:40:28;98150.00;;;7.53;46.45
63321;BME280;49449;48.800;9.534;2022-11-15T07:42:59;98153.38;;;7.60;46.68
63321;BME280;49449;48.800;9.534;2022-11-15T07:45:28;98161.66;;;7.64;47.34
63321;BME280;49449;48.800;9.534;2022-11-15T07:47:56;98148.59;;;7.76;46.41
63321;BME280;49449;48.800;9.534;2022-11-15T07:50:24;98151.38;;;7.81;46.66
63321;BME280;49449;48.800;9.534;2022-11-15T07:52:53;98153.94;;;7.88;46.02
63321;BME280;49449;48.800;9.534;2022-11-15T07:55:23;98149.16;;;8.15;45.67
63321;BME280;49449;48.800;9.534;2022-11-15T07:57:51;98147.69;;;9.69;42.93
63321;BME280;49449;48.800;9.534;2022-11-15T08:00:19;98141.94;;;10.65;41.03
63321;BME280;49449;48.800;9.534;2022-11-15T08:02:48;98133.31;;;12.16;38.39
63321;BME280;49449;48.800;9.534;2022-11-15T08:05:16;98131.50;;;13.35;36.18
63321;BME280;49449;48.800;9.534;2022-11-15T08:07:44;98130.13;;;14.44;34.53
63321;BME280;49449;48.800;9.534;2022-11-15T08:10:12;98121.69;;;15.34;33.09
63321;BME280;49449;48.800;9.534;2022-11-15T08:12:40;98116.44;;;15.99;32.29
63321;BME280;49449;48.800;9.534;2022-11-15T08:15:09;98115.25;;;16.71;30.86
63321;BME280;49449;48.800;9.534;2022-11-15T08:17:37;98100.72;;;17.21;30.44
63321;BME280;49449;48.800;9.534;2022-11-15T08:20:07;98104.78;;;17.43;29.62
63321;BME280;49449;48.800;9.534;2022-11-15T08:22:35;98100.16;;;17.49;29.35
63321;BME280;49449;48.800;9.534;2022-11-15T08:25:03;98104.19;;;16.08;31.78
63321;BME280;49449;48.800;9.534;2022-11-15T08:27:31;98091.25;;;16.31;31.36
63321;BME280;49449;48.800;9.534;2022-11-15T08:29:59;98100.28;;;17.38;30.23
63321;BME280;49449;48.800;9.534;2022-11-15T08:32:27;98094.81;;;18.40;28.99
63321;BME280;49449;48.800;9.534;2022-11-15T08:34:55;98083.75;;;18.80;28.73
63321;BME280;49449;48.800;9.534;2022-11-15T08:37:24;98084.56;;;19.27;27.66
63321;BME280;49449;48.800;9.534;2022-11-15T08:39:52;98091.59;;;18.19;29.40
63321;BME280;49449;48.800;9.534;2022-11-15T08:42:20;98087.91;;;16.89;31.25
63321;BME280;49449;48.800;9.534;2022-11-15T08:44:47;98086.88;;;16.06;32.53
63321;BME280;49449;48.800;9.534;2022-11-15T08:47:15;98090.81;;;15.23;33.31
63321;BME280;49449;48.800;9.534;2022-11-15T08:49:43;98082.06;;;16.08;32.31
63321;BME280;49449;48.800;9.534;2022-11-15T08:52:11;98082.25;;;15.51;33.25
63321;BME280;49449;48.800;9.534;2022-11-15T08:54:40;98081.81;;;14.88;33.76
63321;BME280;49449;48.800;9.534;2022-11-15T08:57:09;98076.94;;;14.13;35.02
63321;BME280;49449;48.800;9.534;2022-11-15T08:59:37;98078.78;;;13.49;36.24
63321;BME280;49449;48.800;9.534;2022-11-15T09:02:05;98070.03;;;13.06;37.15
63321;BME280;49449;48.800;9.534;2022-11-15T09:04:33;98069.75;;;12.70;38.14
63321;BME280;49449;48.800;9.534;2022-11-15T09:07:04;98063.13;;;12.40;38.69
63321;BME280;49449;48.800;9.534;2022-11-15T09:09:32;98065.16;;;12.33;38.91
63321;BME280;49449;48.800;9.534;2022-11-15T09:12:01;98070.13;;;12.24;39.25
63321;BME280;49449;48.800;9.534;2022-11-15T09:14:29;98064.44;;;12.38;39.32
63321;BME280;49449;48.800;9.534;2022-11-15T09:16:57;98061.25;;;13.48;37.55
63321;BME280;49449;48.800;9.534;2022-11-15T09:19:25;98060.59;;;13.73;37.17
63321;BME280;49449;48.800;9.534;2022-11-15T09:21:53;98058.88;;;14.15;36.72
63321;BME280;49449;48.800;9.534;2022-11-15T09:24:21;98055.75;;;14.85;35.48
63321;BME280;49449;48.800;9.534;2022-11-15T09:26:50;98049.00;;;15.49;34.35
63321;BME280;49449;48.800;9.534;2022-11-15T09:29:19;98051.44;;;15.35;33.91
63321;BME280;49449;48.800;9.534;2022-11-15T09:31:47;98048.84;;;14.73;34.91
63321;BME280;49449;48.800;9.534;2022-11-15T09:34:15;98049.56;;;14.23;35.71
63321;BME280;49449;48.800;9.534;2022-11-15T09:36:44;98054.56;;;13.88;36.68
63321;BME280;49449;48.800;9.534;2022-11-15T09:39:11;98052.09;;;13.71;37.06
63321;BME280;49449;48.800;9.534;2022-11-15T09:42:10;98047.97;;;13.48;37.85
63321;BME280;49449;48.800;9.534;2022-11-15T09:44:53;98047.66;;;13.39;37.68
63321;BME280;49449;48.800;9.534;2022-11-15T09:47:45;98044.06;;;13.13;38.33
63321;BME280;49449;48.800;9.534;2022-11-15T09:50:22;98036.03;;;12.98;38.69
63321;BME280;49449;48.800;9.534;2022-11-15T09:52:55;98033.56;;;12.86;39.12
63321;BME280;49449;48.800;9.534;2022-11-15T09:55:31;98035.66;;;12.79;39.30
63321;BME280;49449;48.800;9.534;2022-11-15T09:58:10;98032.19;;;12.78;39.48
63321;BME280;49449;48.800;9.534;2022-11-15T10:00:46;98038.34;;;12.84;39.75
63321;BME280;49449;48.800;9.534;2022-11-15T10:03:25;98037.56;;;12.88;40.04
63321;BME280;49449;48.800;9.534;2022-11-15T10:05:56;98031.25;;;12.95;39.95
63321;BME280;49449;48.800;9.534;2022-11-15T10:11:11;98028.41;;;13.12;39.60
63321;BME280;49449;48.800;9.534;2022-11-15T10:14:05;98026.47;;;13.44;39.67
63321;BME280;49449;48.800;9.534;2022-11-15T10:19:34;98010.19;;;13.83;38.67
63321;BME280;49449;48.800;9.534;2022-11-15T10:22:21;98014.22;;;13.91;38.36
63321;BME280;49449;48.800;9.534;2022-11-15T10:25:00;98003.84;;;13.90;37.90
63321;BME280;49449;48.800;9.534;2022-11-15T10:27:38;98008.59;;;13.93;38.12
63321;BME280;49449;48.800;9.534;2022-11-15T10:30:11;98002.25;;;13.94;38.03
63321;BME280;49449;48.800;9.534;2022-11-15T10:32:42;97993.22;;;14.00;37.79
63321;BME280;49449;48.800;9.534;2022-11-15T10:35:23;97985.56;;;14.04;38.08
63321;BME280;49449;48.800;9.534;2022-11-15T10:37:51;97986.88;;;14.06;38.17
63321;BME280;49449;48.800;9.534;2022-11-15T10:40:21;97976.22;;;14.01;38.29
63321;BME280;49449;48.800;9.534;2022-11-15T10:43:05;97982.31;;;13.96;38.29
63321;BME280;49449;48.800;9.534;2022-11-15T10:45:34;97979.97;;;13.95;38.33
63321;BME280;49449;48.800;9.534;2022-11-15T10:48:24;97982.06;;;13.93;38.64
63321;BME280;49449;48.800;9.534;2022-11-15T10:50:54;97973.56;;;13.91;38.68
63321;BME280;49449;48.800;9.534;2022-11-15T10:53:27;97960.53;;;13.84;39.01
63321;BME280;49449;48.800;9.534;2022-11-15T10:56:03;97964.50;;;13.81;38.84
63321;BME280;49449;48.800;9.534;2022-11-15T10:58:38;97964.78;;;13.80;38.65
63321;BME280;49449;48.800;9.534;2022-11-15T11:01:13;97962.66;;;13.82;37.98
63321;BME280;49449;48.800;9.534;2022-11-15T11:03:43;97947.81;;;13.86;38.18
63321;BME280;49449;48.800;9.534;2022-11-15T11:06:13;97954.19;;;13.90;38.31
63321;BME280;49449;48.800;9.534;2022-11-15T11:08:54;97948.59;;;13.92;37.91
63321;BME280;49449;48.800;9.534;2022-11-15T11:11:22;97944.63;;;13.99;37.99
63321;BME280;49449;48.800;9.534;2022-11-15T11:13:50;97946.75;;;13.97;38.07
63321;BME280;49449;48.800;9.534;2022-11-15T11:16:40;97948.34;;;13.88;38.05
63321;BME280;49449;48.800;9.534;2022-11-15T11:19:23;97945.44;;;13.95;38.48
63321;BME280;49449;48.800;9.534;2022-11-15T11:22:00;97948.06;;;14.05;38.69
63321;BME280;49449;48.800;9.534;2022-11-15T11:24:34;97947.28;;;14.15;38.84
63321;BME280;49449;48.800;9.534;2022-11-15T11:27:22;97943.56;;;14.21;38.63
63321;BME280;49449;48.800;9.534;2022-11-15T11:30:03;97939.84;;;14.17;39.25
63321;BME280;49449;48.800;9.534;2022-11-15T11:35:41;97947.81;;;14.17;39.22
63321;BME280;49449;48.800;9.534;2022-11-15T11:38:30;97934.81;;;14.15;39.31
63321;BME280;49449;48.800;9.534;2022-11-15T11:41:15;97943.28;;;14.12;39.29
63321;BME280;49449;48.800;9.534;2022-11-15T11:44:00;97933.50;;;14.13;39.17
63321;BME280;49449;48.800;9.534;2022-11-15T11:46:47;97937.47;;;14.10;39.48
63321;BME280;49449;48.800;9.534;2022-11-15T11:49:20;97933.75;;;14.11;39.32
63321;BME280;49449;48.800;9.534;2022-11-15T11:51:53;97932.66;;;14.12;39.28
63321;BME280;49449;48.800;9.534;2022-11-15T11:54:26;97927.13;;;14.04;39.01
63321;BME280;49449;48.800;9.534;2022-11-15T11:57:00;97922.59;;;13.94;39.13
63321;BME280;49449;48.800;9.534;2022-11-15T11:59:44;97922.31;;;14.00;38.85
63321;BME280;49449;48.800;9.534;2022-11-15T12:02:20;97919.16;;;13.98;38.74
63321;BME280;49449;48.800;9.534;2022-11-15T12:04:50;97910.09;;;13.99;38.77
63321;BME280;49449;48.800;9.534;2022-11-15T12:07:22;97908.78;;;13.87;38.71
63321;BME280;49449;48.800;9.534;2022-11-15T12:09:55;97902.69;;;13.91;38.43
63321;BME280;49449;48.800;9.534;2022-11-15T12:12:31;97897.63;;;13.95;38.29
63321;BME280;49449;48.800;9.534;2022-11-15T12:15:09;97889.94;;;13.98;38.93
63321;BME280;49449;48.800;9.534;2022-11-15T12:17:40;97891.78;;;14.03;39.07
63321;BME280;49449;48.800;9.534;2022-11-15T12:20:16;97888.59;;;14.01;39.05
63321;BME280;49449;48.800;9.534;2022-11-15T12:22:52;97877.19;;;14.06;39.63
63321;BME280;49449;48.800;9.534;2022-11-15T12:25:24;97875.56;;;14.10;39.51
63321;BME280;49449;48.800;9.534;2022-11-15T12:27:56;97871.56;;;14.12;39.62
63321;BME280;49449;48.800;9.534;2022-11-15T12:30:36;97868.66;;;14.14;39.08
63321;BME280;49449;48.800;9.534;2022-11-15T12:33:28;97871.31;;;14.14;38.92
63321;BME280;49449;48.800;9.534;2022-11-15T12:36:01;97871.06;;;14.15;38.93
63321;BME280;49449;48.800;9.534;2022-11-15T12:38:54;97860.16;;;14.12;39.29
63321;BME280;49449;48.800;9.534;2022-11-15T12:41:24;97855.69;;;14.07;39.76
63321;BME280;49449;48.800;9.534;2022-11-15T12:43:52;97863.38;;;14.04;39.84
63321;BME280;49449;48.800;9.534;2022-11-15T12:49:44;97859.63;;;13.84;38.56
63321;BME280;49449;48.800;9.534;2022-11-15T12:52:12;97860.47;;;13.90;39.14
63321;BME280;49449;48.800;9.534;2022-11-15T12:54:57;97865.78;;;13.90;38.40
63321;BME280;49449;48.800;9.534;2022-11-15T12:57:36;97866.03;;;13.93;38.43
63321;BME280;49449;48.800;9.534;2022-11-15T13:00:38;97864.69;;;13.91;39.10
63321;BME280;49449;48.800;9.534;2022-11-15T13:03:21;97860.47;;;13.90;39.04
63321;BME280;49449;48.800;9.534;2022-11-15T13:06:08;97854.59;;;13.88;38.63
63321;BME280;49449;48.800;9.534;2022-11-15T13:08:39;97851.16;;;13.87;38.43
63321;BME280;49449;48.800;9.534;2022-11-15T13:14:44;97852.50;;;13.85;37.97
63321;BME280;49449;48.800;9.534;2022-11-15T13:17:38;97845.56;;;13.83;38.32
63321;BME280;49449;48.800;9.534;2022-11-15T13:20:22;97845.56;;;13.78;38.09
63321;BME280;49449;48.800;9.534;2022-11-15T13:22:51;97844.78;;;13.73;38.59
63321;BME280;49449;48.800;9.534;2022-11-15T13:25:40;97841.88;;;13.79;38.76
63321;BME280;49449;48.800;9.534;2022-11-15T13:28:21;97832.56;;;13.82;39.06
63321;BME280;49449;48.800;9.534;2022-11-15T13:30:52;97828.06;;;13.82;39.25
63321;BME280;49449;48.800;9.534;2022-11-15T13:33:24;97819.81;;;13.84;39.05
63321;BME280;49449;48.800;9.534;2022-11-15T13:35:55;97818.75;;;13.85;39.15
63321;BME280;49449;48.800;9.534;2022-11-15T13:38:28;97810.00;;;13.85;39.13
63321;BME280;49449;48.800;9.534;2022-11-15T13:40:59;97814.75;;;13.88;39.14
63321;BME280;49449;48.800;9.534;2022-11-15T13:43:31;97804.97;;;13.88;39.26
63321;BME280;49449;48.800;9.534;2022-11-15T13:46:07;97798.84;;;13.88;39.12
63321;BME280;49449;48.800;9.534;2022-11-15T13:48:36;97786.13;;;13.90;39.63